createdAt,value
2023-04-17T00:00:48.684Z,20.70
2023-04-17T00:06:53.973Z,20.02
2023-04-17T00:12:56.691Z,19.15
2023-04-17T00:18:58.460Z,20.17
2023-04-17T00:25:00.431Z,20.45
2023-04-17T00:31:02.270Z,20.90
2023-04-17T00:37:04.044Z,19.58
2023-04-17T00:43:07.145Z,19.80
2023-04-17T00:49:09.319Z,21.40
2023-04-17T00:55:11.612Z,20.50
2023-04-17T01:01:13.437Z,19.95
2023-04-17T01:07:15.557Z,19.67
2023-04-17T01:13:17.461Z,20.20
2023-04-17T01:19:19.655Z,18.55
2023-04-17T01:25:21.632Z,19.98
2023-04-17T01:31:25.620Z,18.90
2023-04-17T01:37:27.827Z,18.92
2023-04-17T01:43:29.652Z,17.30
2023-04-17T01:49:31.501Z,17.98
2023-04-17T01:55:33.271Z,18.15
2023-04-17T02:01:36.932Z,18.15
2023-04-17T02:07:38.808Z,19.33
2023-04-17T02:13:40.833Z,18.33
2023-04-17T02:19:42.643Z,19.40
2023-04-17T02:25:44.488Z,19.17
2023-04-17T02:31:46.623Z,19.63
2023-04-17T02:37:48.605Z,20.80
2023-04-17T02:43:50.425Z,19.33
2023-04-17T02:49:52.292Z,18.75
2023-04-17T02:55:54.112Z,15.80
2023-04-17T03:01:59.793Z,15.68
2023-04-17T03:08:01.896Z,16.23
2023-04-17T03:14:03.788Z,17.15
2023-04-17T03:20:08.041Z,16.27
2023-04-17T03:26:10.147Z,15.95
2023-04-17T03:32:12.069Z,15.23
2023-04-17T03:38:13.949Z,15.35
2023-04-17T03:44:17.364Z,16.67
2023-04-17T03:50:19.205Z,15.65
2023-04-17T03:56:21.871Z,15.27
2023-04-17T04:02:24.170Z,15.07
2023-04-17T04:08:26.468Z,14.50
2023-04-17T04:14:28.367Z,14.75
2023-04-17T04:20:30.826Z,15.40
2023-04-17T04:26:33.442Z,16.95
2023-04-17T04:32:36.891Z,15.85
2023-04-17T04:38:38.713Z,16.50
2023-04-17T04:44:40.709Z,17.45
2023-04-17T04:50:42.573Z,18.30
2023-04-17T04:56:45.084Z,18.45
2023-04-17T05:02:46.958Z,19.90
2023-04-17T05:08:49.194Z,20.05
2023-04-17T05:14:51.003Z,18.85
2023-04-17T05:20:52.773Z,19.38
2023-04-17T05:26:54.666Z,19.15
2023-04-17T05:32:56.709Z,20.10
2023-04-17T05:38:58.734Z,17.73
2023-04-17T05:45:00.613Z,17.95
2023-04-17T05:51:02.638Z,18.95
2023-04-17T05:57:04.430Z,18.42
2023-04-17T06:03:06.712Z,16.58
2023-04-17T06:09:10.430Z,16.45
2023-04-17T06:15:12.599Z,15.93
2023-04-17T06:21:14.908Z,16.33
2023-04-17T06:27:16.729Z,16.33
2023-04-17T06:33:18.496Z,17.27
2023-04-17T06:39:20.310Z,15.32
2023-04-17T06:45:22.201Z,13.38
2023-04-17T06:51:25.490Z,13.07
2023-04-17T06:57:27.293Z,12.73
2023-04-17T07:03:29.752Z,12.55
2023-04-17T07:09:32.050Z,11.98
2023-04-17T07:15:34.129Z,12.00
2023-04-17T07:21:36.144Z,11.95
2023-04-17T07:27:39.381Z,12.23
2023-04-17T07:33:41.310Z,11.93
2023-04-17T07:39:43.334Z,10.40
2023-04-17T07:45:45.118Z,10.43
2023-04-17T07:51:47.081Z,10.18
2023-04-17T07:57:51.627Z,10.23
2023-04-17T08:03:54.916Z,9.55
2023-04-17T08:09:57.070Z,9.67
2023-04-17T08:15:59.690Z,10.10
2023-04-17T08:22:04.419Z,10.20
2023-04-17T08:28:07.029Z,10.00
2023-04-17T08:34:14.383Z,8.52
2023-04-17T08:40:18.674Z,9.52
2023-04-17T08:46:24.504Z,9.63
2023-04-17T08:52:27.129Z,8.90
2023-04-17T08:58:35.897Z,8.02
2023-04-17T09:04:41.023Z,8.52
2023-04-17T09:10:45.933Z,8.00
2023-04-17T09:16:55.215Z,8.25
2023-04-17T09:23:05.544Z,8.95
2023-04-17T09:29:11.410Z,8.20
2023-04-17T09:35:26.028Z,8.63
2023-04-17T09:41:29.594Z,7.82
2023-04-17T09:47:31.827Z,8.73
2023-04-17T09:53:33.914Z,8.35
2023-04-17T09:59:47.038Z,9.18
2023-04-17T10:05:48.975Z,8.95
2023-04-17T10:11:51.897Z,8.43
2023-04-17T10:17:56.485Z,9.52
2023-04-17T10:23:59.685Z,7.97
2023-04-17T10:30:04.146Z,7.50
2023-04-17T10:36:06.378Z,8.00
2023-04-17T10:42:08.290Z,6.35
2023-04-17T10:48:21.177Z,8.00
2023-04-17T10:54:22.986Z,7.32
2023-04-17T11:00:38.977Z,7.93
2023-04-17T11:06:42.080Z,7.93
2023-04-17T11:12:48.262Z,7.80
2023-04-17T11:18:51.868Z,8.23
2023-04-17T11:24:53.852Z,8.30
2023-04-17T11:30:55.888Z,7.90
2023-04-17T11:37:01.275Z,7.82
2023-04-17T11:43:08.034Z,7.85
2023-04-17T11:49:10.293Z,7.65
2023-04-17T11:55:12.212Z,7.95
2023-04-17T12:01:14.199Z,8.15
2023-04-17T12:07:24.814Z,9.00
2023-04-17T12:13:26.699Z,7.85
2023-04-17T12:19:30.024Z,7.30
2023-04-17T12:25:33.349Z,6.77
2023-04-17T12:31:35.344Z,7.63
2023-04-17T12:37:37.222Z,7.43
2023-04-17T12:43:38.978Z,7.40
2023-04-17T12:49:40.755Z,7.72
2023-04-17T12:55:44.153Z,7.97
2023-04-17T13:01:46.563Z,7.80
2023-04-17T13:07:48.877Z,7.25
2023-04-17T13:13:50.783Z,7.20
2023-04-17T13:19:52.602Z,8.48
2023-04-17T13:25:54.866Z,7.82
2023-04-17T13:31:56.698Z,7.50
2023-04-17T13:38:02.267Z,7.55
2023-04-17T13:44:04.371Z,7.25
2023-04-17T13:50:06.870Z,6.43
2023-04-17T13:56:08.761Z,6.20
2023-04-17T14:02:11.074Z,7.05
2023-04-17T14:08:13.079Z,6.20
2023-04-17T14:14:14.861Z,6.40
2023-04-17T14:20:18.029Z,6.07
2023-04-17T14:26:19.970Z,6.43
2023-04-17T14:32:21.732Z,6.75
2023-04-17T14:38:24.533Z,6.75
2023-04-17T14:44:26.389Z,6.18
2023-04-17T14:50:28.289Z,6.35
2023-04-17T14:56:30.399Z,6.00
2023-04-17T15:02:38.400Z,6.07
2023-04-17T15:08:40.752Z,6.40
2023-04-17T15:14:42.504Z,6.55
2023-04-17T15:20:44.358Z,7.03
2023-04-17T15:26:46.297Z,6.50
2023-04-17T15:32:48.190Z,7.35
2023-04-17T15:38:50.088Z,7.43
2023-04-17T15:44:53.107Z,7.40
2023-04-17T15:50:55.478Z,6.68
2023-04-17T15:56:57.487Z,6.90
2023-04-17T16:02:59.350Z,6.32
2023-04-17T16:09:01.446Z,6.57
2023-04-17T16:15:03.235Z,6.47
2023-04-17T16:21:06.368Z,6.40
2023-04-17T16:27:08.782Z,5.47
2023-04-17T16:33:10.754Z,4.68
2023-04-17T16:39:13.127Z,5.45
2023-04-17T16:45:15.168Z,5.13
2023-04-17T16:51:16.976Z,5.68
2023-04-17T16:57:18.731Z,5.20
2023-04-17T17:03:20.724Z,5.55
2023-04-17T17:09:22.809Z,5.30
2023-04-17T17:15:25.040Z,5.30
2023-04-17T17:21:26.798Z,4.90
2023-04-17T17:27:28.726Z,5.00
2023-04-17T17:33:32.096Z,4.50
2023-04-17T17:39:34.271Z,5.50
2023-04-17T17:45:36.093Z,4.82
2023-04-17T17:51:37.951Z,4.30
2023-04-17T17:57:48.927Z,4.40
2023-04-17T18:03:51.363Z,4.57
2023-04-17T18:09:53.386Z,4.53
2023-04-17T18:15:55.251Z,5.00
2023-04-17T18:21:57.171Z,4.85
2023-04-17T18:27:58.916Z,4.47
2023-04-17T18:34:02.763Z,4.65
2023-04-17T18:40:07.247Z,4.70
2023-04-17T18:46:09.082Z,4.15
2023-04-17T18:52:11.348Z,4.60
2023-04-17T18:58:13.090Z,4.30
2023-04-17T19:04:15.296Z,4.57
2023-04-17T19:10:17.411Z,4.22
2023-04-17T19:16:19.304Z,3.55
2023-04-17T19:22:21.261Z,3.63
2023-04-17T19:28:24.094Z,3.92
2023-04-17T19:34:25.948Z,4.20
2023-04-17T19:40:27.954Z,4.22
2023-04-17T19:46:29.812Z,4.40
2023-04-17T19:52:31.627Z,4.82
2023-04-17T19:58:33.776Z,4.25
2023-04-17T20:04:35.544Z,4.38
2023-04-17T20:10:37.389Z,4.82
2023-04-17T20:16:39.190Z,5.13
2023-04-17T20:22:41.330Z,4.65
2023-04-17T20:28:43.194Z,4.75
2023-04-17T20:34:47.049Z,4.85
2023-04-17T20:40:48.836Z,5.07
2023-04-17T20:46:50.682Z,4.60
2023-04-17T20:52:52.747Z,4.40
2023-04-17T20:58:54.513Z,4.20
2023-04-17T21:04:56.284Z,4.13
2023-04-17T21:10:58.164Z,4.32
2023-04-17T21:17:00.417Z,4.40
2023-04-17T21:23:02.301Z,3.88
2023-04-17T21:29:04.255Z,3.30
2023-04-17T21:35:06.741Z,3.38
2023-04-17T21:41:09.283Z,3.47
2023-04-17T21:47:11.354Z,3.25
2023-04-17T21:53:13.208Z,3.50
2023-04-17T21:59:15.006Z,3.42
2023-04-17T22:05:16.920Z,3.70
2023-04-17T22:11:18.925Z,3.42
2023-04-17T22:17:20.740Z,3.40
2023-04-17T22:23:22.557Z,3.80
2023-04-17T22:29:24.365Z,3.80
2023-04-17T22:35:26.632Z,3.95
2023-04-17T22:41:28.383Z,3.75
2023-04-17T22:47:30.561Z,3.33
2023-04-17T22:53:32.982Z,3.70
2023-04-17T22:59:34.755Z,3.95
2023-04-17T23:05:36.629Z,3.53
2023-04-17T23:11:38.564Z,3.67
2023-04-17T23:17:40.288Z,4.03
2023-04-17T23:23:42.274Z,3.53
2023-04-17T23:29:44.057Z,3.83
2023-04-17T23:35:45.974Z,3.67
2023-04-17T23:41:47.924Z,3.35
2023-04-17T23:47:49.805Z,3.28
2023-04-17T23:53:51.618Z,3.30
2023-04-17T23:59:53.375Z,4.07
